Time;durP1;ratioP1;P1;durP2;ratioP2;P2;SDS_P1;SDS_P2;PMS_P1;PMS_P2;Temp;Humidity;BMP_temperature;BMP_pressure;BME280_temperature;BME280_humidity;BME280_pressure;Samples;Min_cycle;Max_cycle;Signal;HPM_P1;HPM_P2
2022/02/24 00:01:28;;;;;;;6.37;1.80;;;4.50;99.90;;;;;;4925430;29;20283;-85
2022/02/24 00:03:54;;;;;;;8.13;1.80;;;4.50;99.90;;;;;;4920523;29;20221;-85
2022/02/24 00:06:31;;;;;;;7.43;1.43;;;4.50;99.90;;;;;;4926358;29;20225;-86
2022/02/24 00:08:57;;;;;;;8.57;2.00;;;4.50;99.90;;;;;;4920467;29;20624;-87
2022/02/24 00:11:23;;;;;;;8.97;1.90;;;4.60;99.90;;;;;;4924760;29;20181;-86
2022/02/24 00:13:52;;;;;;;7.47;1.70;;;4.50;99.90;;;;;;4939426;29;20264;-85
2022/02/24 00:16:17;;;;;;;5.70;1.57;;;4.50;99.90;;;;;;4921980;29;20225;-86
2022/02/24 00:18:43;;;;;;;6.30;1.70;;;4.50;99.90;;;;;;4924411;29;20201;-86
2022/02/24 00:21:08;;;;;;;9.97;1.80;;;4.50;99.90;;;;;;4940013;29;20186;-86
2022/02/24 00:23:34;;;;;;;7.10;1.60;;;4.50;99.90;;;;;;4923045;29;20245;-87
2022/02/24 00:26:00;;;;;;;6.40;2.10;;;4.50;99.90;;;;;;4940763;29;20257;-86
2022/02/24 00:28:26;;;;;;;7.17;1.67;;;4.40;99.90;;;;;;4923517;29;20178;-86
2022/02/24 00:30:51;;;;;;;5.07;1.63;;;4.50;99.90;;;;;;4940708;29;20652;-86
2022/02/24 00:33:17;;;;;;;8.63;1.93;;;4.50;99.90;;;;;;4940633;29;20174;-87
2022/02/24 00:35:43;;;;;;;5.17;1.30;;;4.50;99.90;;;;;;4939996;29;20220;-86
2022/02/24 00:38:08;;;;;;;6.50;1.80;;;4.50;99.90;;;;;;4940229;29;20178;-87
2022/02/24 00:40:34;;;;;;;6.73;1.80;;;4.50;99.90;;;;;;4923585;29;20193;-87
2022/02/24 00:43:00;;;;;;;6.37;1.67;;;4.60;99.90;;;;;;4923345;29;20217;-87
2022/02/24 00:45:27;;;;;;;7.30;1.83;;;4.60;99.90;;;;;;4923519;29;20545;-87
2022/02/24 00:47:53;;;;;;;5.03;2.03;;;4.60;99.90;;;;;;4923545;29;20193;-87
2022/02/24 00:50:19;;;;;;;3.77;1.40;;;4.50;99.90;;;;;;4939939;29;20178;-87
2022/02/24 00:52:44;;;;;;;5.57;1.30;;;4.50;99.90;;;;;;4923039;29;20220;-87
2022/02/24 00:55:11;;;;;;;5.87;1.53;;;4.50;99.90;;;;;;4923147;29;20190;-88
2022/02/24 00:57:37;;;;;;;4.20;1.43;;;4.40;99.90;;;;;;4923213;29;20354;-87
2022/02/24 01:00:04;;;;;;;9.07;1.60;;;4.40;99.90;;;;;;4923442;29;20618;-87
2022/02/24 01:02:30;;;;;;;10.33;1.77;;;4.50;99.90;;;;;;4923046;29;20356;-87
2022/02/24 01:04:55;;;;;;;5.87;1.47;;;4.50;99.90;;;;;;4940078;29;20672;-87
2022/02/24 01:07:21;;;;;;;6.43;2.17;;;4.50;99.90;;;;;;4922823;29;20269;-87
2022/02/24 01:09:47;;;;;;;8.07;1.80;;;4.60;99.90;;;;;;4923041;29;20234;-87
2022/02/24 01:12:12;;;;;;;6.20;1.23;;;4.60;99.90;;;;;;4940023;29;20193;-87
2022/02/24 01:14:38;;;;;;;6.07;1.70;;;4.50;99.90;;;;;;4938958;29;20178;-87
2022/02/24 01:17:04;;;;;;;7.83;1.70;;;4.50;99.90;;;;;;4939916;29;20166;-88
2022/02/24 01:19:30;;;;;;;5.93;1.37;;;4.50;99.90;;;;;;4922788;29;20517;-87
2022/02/24 01:21:56;;;;;;;6.67;1.50;;;4.50;99.90;;;;;;4939752;29;20178;-87
2022/02/24 01:24:21;;;;;;;7.73;1.80;;;4.50;99.90;;;;;;5378230;23;20232;-86
2022/02/24 01:26:47;;;;;;;9.07;1.80;;;4.50;99.90;;;;;;4958611;29;20240;-87
2022/02/24 01:29:12;;;;;;;7.33;1.67;;;4.50;99.90;;;;;;4941635;29;20181;-86
2022/02/24 01:31:39;;;;;;;7.33;1.83;;;4.60;99.90;;;;;;4941765;29;20530;-86
2022/02/24 01:34:05;;;;;;;9.47;2.10;;;4.60;99.90;;;;;;4941502;29;20192;-87
2022/02/24 01:36:31;;;;;;;5.03;1.10;;;4.60;99.90;;;;;;4941226;29;20193;-87
2022/02/24 01:38:57;;;;;;;4.33;1.20;;;4.60;99.90;;;;;;4941268;29;20646;-87
2022/02/24 01:41:22;;;;;;;5.93;1.40;;;4.70;99.90;;;;;;4925687;29;20194;-86
2022/02/24 01:43:48;;;;;;;7.47;1.80;;;4.70;99.90;;;;;;4955361;29;20217;-87
2022/02/24 01:46:15;;;;;;;3.77;1.20;;;4.80;99.90;;;;;;4958332;29;20260;-86
2022/02/24 01:48:42;;;;;;;6.70;1.60;;;4.90;99.90;;;;;;4941277;29;20588;-86
2022/02/24 01:51:09;;;;;;;6.57;2.00;;;5.00;99.90;;;;;;4941341;29;20195;-87
2022/02/24 01:53:36;;;;;;;5.73;1.63;;;5.00;99.90;;;;;;4958265;29;20580;-86
2022/02/24 01:56:05;;;;;;;10.57;1.40;;;5.00;99.90;;;;;;4941204;29;20272;-87
2022/02/24 01:58:31;;;;;;;5.73;1.60;;;5.10;99.90;;;;;;4941357;29;20185;-86
2022/02/24 02:00:57;;;;;;;2.60;1.30;;;5.10;99.90;;;;;;4958119;29;20169;-86
2022/02/24 02:03:23;;;;;;;7.67;1.50;;;5.20;99.90;;;;;;4940989;29;20602;-86
2022/02/24 02:05:49;;;;;;;6.30;1.63;;;5.20;99.90;;;;;;4957900;29;20573;-87
2022/02/24 02:08:15;;;;;;;7.27;1.43;;;5.30;99.90;;;;;;4958024;29;20176;-87
2022/02/24 02:10:40;;;;;;;5.63;1.73;;;5.30;99.90;;;;;;4941032;29;20272;-87
2022/02/24 02:13:06;;;;;;;4.40;1.30;;;5.30;99.90;;;;;;4940981;29;20197;-86
2022/02/24 02:15:32;;;;;;;4.83;1.20;;;5.30;99.90;;;;;;4940802;29;20181;-87
2022/02/24 02:17:58;;;;;;;5.90;1.40;;;5.30;99.90;;;;;;4940704;29;20188;-87
2022/02/24 02:20:23;;;;;;;5.00;1.43;;;5.40;99.90;;;;;;4957842;29;20293;-86
2022/02/24 02:22:54;;;;;;;13.47;1.50;;;5.40;99.90;;;;;;4940550;29;20223;-87
2022/02/24 02:25:20;;;;;;;7.13;1.40;;;5.40;99.90;;;;;;4957433;28;20224;-87
2022/02/24 02:27:49;;;;;;;4.40;1.60;;;5.40;99.90;;;;;;4940339;29;20608;-87
2022/02/24 02:30:15;;;;;;;7.73;1.57;;;5.40;99.90;;;;;;4940476;29;20243;-87
2022/02/24 02:32:41;;;;;;;7.27;1.47;;;5.40;99.90;;;;;;4940464;29;20231;-86
2022/02/24 02:35:07;;;;;;;5.87;1.30;;;5.40;99.90;;;;;;4957846;29;20535;-86
2022/02/24 02:37:33;;;;;;;5.37;1.30;;;5.50;99.90;;;;;;4940261;29;20217;-87
2022/02/24 02:40:05;;;;;;;5.90;1.50;;;5.50;99.90;;;;;;4940677;29;20201;-87
2022/02/24 02:42:31;;;;;;;5.43;1.67;;;5.50;99.90;;;;;;4940138;29;20209;-87
2022/02/24 02:44:57;;;;;;;5.20;1.40;;;5.60;99.90;;;;;;4940216;29;20232;-87
2022/02/24 02:47:23;;;;;;;4.00;1.30;;;5.50;99.90;;;;;;4957415;29;20185;-87
2022/02/24 02:49:48;;;;;;;5.63;1.30;;;5.50;99.90;;;;;;4940340;29;20209;-87
2022/02/24 02:52:15;;;;;;;7.33;1.70;;;5.50;99.90;;;;;;4939476;29;20188;-87
2022/02/24 02:54:40;;;;;;;2.80;1.40;;;5.50;99.90;;;;;;4940312;29;20248;-87
2022/02/24 02:57:06;;;;;;;6.73;1.30;;;5.40;99.90;;;;;;4939442;29;20181;-86
2022/02/24 02:59:32;;;;;;;3.73;1.33;;;5.40;99.90;;;;;;4957197;29;20181;-87
2022/02/24 03:01:57;;;;;;;5.83;1.70;;;5.40;99.90;;;;;;4939876;29;20569;-87
2022/02/24 03:04:23;;;;;;;4.37;1.60;;;5.40;99.90;;;;;;4940069;29;20185;-87
2022/02/24 03:06:49;;;;;;;4.80;1.30;;;5.40;99.90;;;;;;4939906;29;20204;-87
2022/02/24 03:09:15;;;;;;;3.70;1.47;;;5.40;99.90;;;;;;4939784;29;20264;-87
2022/02/24 03:11:41;;;;;;;4.63;1.40;;;5.50;99.90;;;;;;4957079;29;20534;-86
2022/02/24 03:14:06;;;;;;;4.77;1.43;;;5.50;99.90;;;;;;4956967;29;20600;-86
2022/02/24 03:16:32;;;;;;;8.37;1.73;;;5.50;99.90;;;;;;4939635;29;20181;-86
2022/02/24 03:18:58;;;;;;;7.03;1.60;;;5.50;99.90;;;;;;4939842;29;20204;-86
2022/02/24 03:21:23;;;;;;;4.17;1.50;;;5.50;99.90;;;;;;4939804;29;20188;-85
2022/02/24 03:23:49;;;;;;;4.97;1.47;;;5.50;99.90;;;;;;4939145;29;20216;-86
2022/02/24 03:26:15;;;;;;;7.00;1.80;;;5.50;99.90;;;;;;4957022;29;20181;-87
2022/02/24 03:28:41;;;;;;;7.33;1.73;;;5.50;99.90;;;;;;4956480;29;20188;-87
2022/02/24 03:31:07;;;;;;;5.20;1.60;;;5.50;99.90;;;;;;4956673;29;20173;-87
2022/02/24 03:33:32;;;;;;;6.47;1.50;;;5.50;99.90;;;;;;4939699;29;20182;-87
2022/02/24 03:35:58;;;;;;;6.57;1.53;;;5.60;99.90;;;;;;4956685;29;20185;-87
2022/02/24 03:38:24;;;;;;;4.43;1.70;;;5.50;99.90;;;;;;4955961;28;20161;-87
2022/02/24 03:40:50;;;;;;;6.47;2.00;;;5.50;99.90;;;;;;4939552;29;20312;-87
2022/02/24 03:43:16;;;;;;;3.87;1.70;;;5.50;99.90;;;;;;4956451;29;20671;-87
2022/02/24 03:45:41;;;;;;;4.50;1.60;;;5.60;99.90;;;;;;4956513;29;20199;-87
2022/02/24 03:48:07;;;;;;;5.33;1.63;;;5.60;99.90;;;;;;4956747;29;20194;-88
2022/02/24 03:50:33;;;;;;;4.83;1.50;;;5.60;99.90;;;;;;4956532;29;20180;-87
2022/02/24 03:52:58;;;;;;;8.47;2.03;;;5.70;99.90;;;;;;4939358;29;20221;-87
2022/02/24 03:55:24;;;;;;;5.80;1.67;;;5.70;99.90;;;;;;4956594;29;20177;-87
2022/02/24 03:57:50;;;;;;;6.10;1.73;;;5.70;99.90;;;;;;4956469;29;20216;-87
2022/02/24 04:00:16;;;;;;;7.93;1.60;;;5.80;99.90;;;;;;4956460;29;20169;-87
2022/02/24 04:02:42;;;;;;;4.90;1.53;;;5.70;99.90;;;;;;4956234;29;20212;-87
2022/02/24 04:05:09;;;;;;;3.97;1.43;;;5.70;99.90;;;;;;4939213;29;20180;-88
2022/02/24 04:07:35;;;;;;;9.20;1.73;;;5.80;99.90;;;;;;4956083;29;20177;-86
2022/02/24 04:10:02;;;;;;;6.17;1.40;;;5.80;99.90;;;;;;4956410;29;20165;-87
2022/02/24 04:12:28;;;;;;;5.90;2.07;;;5.90;99.90;;;;;;4956192;29;20276;-88
2022/02/24 04:14:55;;;;;;;6.60;1.80;;;5.90;99.90;;;;;;4939292;29;20219;-88
2022/02/24 04:17:21;;;;;;;5.97;1.30;;;5.90;99.90;;;;;;4939176;29;20184;-87
2022/02/24 04:19:47;;;;;;;3.93;1.27;;;5.90;99.90;;;;;;4939324;29;20177;-88
2022/02/24 04:22:12;;;;;;;5.50;1.47;;;5.90;99.90;;;;;;4939154;29;20553;-88
2022/02/24 04:24:38;;;;;;;5.03;1.70;;;5.90;99.90;;;;;;4955806;29;20320;-87
2022/02/24 04:27:04;;;;;;;5.40;1.40;;;6.00;99.90;;;;;;4938866;29;20177;-88
2022/02/24 04:29:30;;;;;;;4.10;1.43;;;6.10;99.90;;;;;;4939271;29;20192;-87
2022/02/24 04:31:56;;;;;;;7.10;1.60;;;6.20;99.90;;;;;;4939083;29;20177;-87
2022/02/24 04:34:21;;;;;;;9.37;1.60;;;6.20;99.90;;;;;;4939122;29;20185;-87
2022/02/24 04:36:47;;;;;;;4.33;1.33;;;6.30;99.90;;;;;;4938918;29;20212;-88
2022/02/24 04:39:13;;;;;;;3.87;1.30;;;6.30;99.90;;;;;;4938906;29;20232;-88
2022/02/24 04:41:39;;;;;;;3.03;1.40;;;6.40;99.90;;;;;;4938973;29;20236;-88
2022/02/24 04:44:04;;;;;;;7.53;1.47;;;6.40;99.90;;;;;;4955979;29;20209;-87
2022/02/24 04:46:31;;;;;;;6.07;1.57;;;6.40;99.90;;;;;;4938782;29;20184;-87
2022/02/24 04:48:58;;;;;;;6.80;1.87;;;6.40;99.90;;;;;;4939852;29;20605;-87
2022/02/24 04:51:23;;;;;;;5.83;1.40;;;6.50;99.90;;;;;;4942533;29;20554;-87
2022/02/24 04:53:49;;;;;;;4.03;1.40;;;6.50;99.90;;;;;;4942261;29;20569;-87
2022/02/24 04:56:15;;;;;;;4.40;1.27;;;6.60;99.90;;;;;;4942178;29;20188;-86
2022/02/24 04:58:40;;;;;;;5.47;1.20;;;6.50;99.90;;;;;;4942397;29;20217;-87
2022/02/24 05:01:06;;;;;;;7.73;1.40;;;6.60;99.90;;;;;;4942364;29;20182;-88
2022/02/24 05:03:32;;;;;;;4.80;1.50;;;6.60;99.90;;;;;;4959262;29;20674;-88
2022/02/24 05:05:58;;;;;;;8.57;1.83;;;6.60;99.90;;;;;;4959247;29;20533;-88
2022/02/24 05:08:24;;;;;;;6.37;1.70;;;6.50;99.90;;;;;;4959016;29;20177;-87
2022/02/24 05:10:51;;;;;;;4.83;1.30;;;6.60;99.90;;;;;;4942196;29;20196;-87
2022/02/24 05:13:17;;;;;;;4.50;1.40;;;6.60;99.90;;;;;;4957863;28;20177;-88
2022/02/24 05:15:43;;;;;;;10.73;1.87;;;6.70;99.90;;;;;;4941925;29;20192;-87
2022/02/24 05:18:08;;;;;;;6.47;1.53;;;6.70;99.90;;;;;;4941855;29;20568;-88
2022/02/24 05:20:36;;;;;;;3.80;1.27;;;6.60;99.90;;;;;;4959111;29;20171;-87
2022/02/24 05:23:02;;;;;;;3.57;1.17;;;6.60;99.90;;;;;;4958647;29;20237;-87
2022/02/24 05:25:30;;;;;;;7.60;1.83;;;6.70;99.90;;;;;;4941477;29;20268;-87
2022/02/24 05:27:56;;;;;;;5.60;1.70;;;6.70;99.90;;;;;;4941675;29;20600;-87
2022/02/24 05:30:22;;;;;;;4.80;1.60;;;6.70;99.90;;;;;;4941754;29;20556;-88
2022/02/24 05:32:48;;;;;;;5.60;1.50;;;6.70;99.90;;;;;;4942177;29;20185;-88
2022/02/24 05:35:13;;;;;;;6.87;1.37;;;6.60;99.90;;;;;;4958901;29;20616;-88
2022/02/24 05:37:39;;;;;;;6.47;1.60;;;6.60;99.90;;;;;;4941590;29;20220;-88
2022/02/24 05:40:06;;;;;;;6.20;1.40;;;6.60;99.90;;;;;;4941334;29;20185;-87
2022/02/24 05:42:31;;;;;;;4.80;1.60;;;6.50;99.90;;;;;;4958715;29;20296;-88
2022/02/24 05:44:57;;;;;;;2.40;1.50;;;6.50;99.90;;;;;;4958689;29;20236;-88
2022/02/24 05:47:23;;;;;;;5.20;1.63;;;6.60;99.90;;;;;;4941420;29;20188;-88
2022/02/24 05:49:49;;;;;;;4.90;1.70;;;6.60;99.90;;;;;;4941557;29;20181;-87
2022/02/24 05:52:15;;;;;;;3.93;1.40;;;6.60;99.90;;;;;;4958426;29;20181;-87
2022/02/24 05:54:40;;;;;;;2.67;1.33;;;6.60;99.90;;;;;;4941095;29;20582;-87
2022/02/24 05:57:06;;;;;;;5.37;1.57;;;6.60;99.90;;;;;;4958521;29;20559;-89
2022/02/24 05:59:32;;;;;;;5.20;1.33;;;6.60;99.90;;;;;;4941177;29;20174;-87
2022/02/24 06:01:57;;;;;;;7.63;2.17;;;6.60;99.90;;;;;;4940769;29;20193;-87
2022/02/24 06:04:23;;;;;;;7.33;1.57;;;6.60;99.90;;;;;;4958014;29;20646;-88
2022/02/24 06:06:49;;;;;;;4.67;1.67;;;6.60;99.90;;;;;;4941096;29;20585;-88
2022/02/24 06:09:16;;;;;;;8.67;1.90;;;6.50;99.90;;;;;;4940785;29;20659;-87
2022/02/24 06:11:41;;;;;;;5.03;1.60;;;6.50;99.90;;;;;;4941126;29;20185;-88
2022/02/24 06:14:07;;;;;;;6.50;1.70;;;6.50;99.90;;;;;;4940810;29;20629;-88
2022/02/24 06:16:33;;;;;;;3.43;1.40;;;6.50;99.90;;;;;;4941092;29;20224;-89
2022/02/24 06:18:59;;;;;;;4.93;1.90;;;6.50;99.90;;;;;;4941016;29;20173;-87
2022/02/24 06:21:25;;;;;;;6.33;1.67;;;6.50;99.90;;;;;;4940683;29;20173;-87
2022/02/24 06:23:50;;;;;;;7.17;1.47;;;6.50;99.90;;;;;;4940302;28;20291;-87
2022/02/24 06:26:16;;;;;;;6.10;1.77;;;6.60;99.90;;;;;;4941041;28;20676;-87
2022/02/24 06:28:41;;;;;;;6.70;1.60;;;6.60;99.90;;;;;;4977204;28;20259;-87
2022/02/24 06:31:08;;;;;;;6.30;1.80;;;6.70;99.90;;;;;;4959975;28;20316;-87
2022/02/24 06:33:35;;;;;;;7.13;2.00;;;6.60;99.90;;;;;;4959534;28;20185;-87
2022/02/24 06:36:01;;;;;;;6.17;2.23;;;6.70;99.90;;;;;;4964317;28;20182;-90
2022/02/24 06:38:27;;;;;;;10.90;2.30;;;6.60;99.90;;;;;;4946574;28;20192;-91
2022/02/24 06:40:53;;;;;;;6.03;2.00;;;6.60;99.90;;;;;;4964468;28;20185;-89
2022/02/24 06:43:19;;;;;;;8.67;2.50;;;6.70;99.90;;;;;;4957876;28;20221;-91
2022/02/24 06:45:45;;;;;;;9.10;2.60;;;6.70;99.90;;;;;;4963620;28;20180;-87
2022/02/24 06:48:11;;;;;;;8.97;3.03;;;6.80;99.90;;;;;;4956531;29;20639;-88
2022/02/24 06:50:37;;;;;;;8.33;3.00;;;6.80;99.90;;;;;;4956769;29;20173;-87
2022/02/24 06:53:02;;;;;;;11.17;3.03;;;6.80;99.90;;;;;;4939595;29;20193;-89
2022/02/24 06:55:29;;;;;;;9.03;2.10;;;6.70;99.90;;;;;;4955756;28;20189;-90
2022/02/24 06:57:55;;;;;;;5.50;2.20;;;6.80;99.90;;;;;;4957336;29;20185;-89
2022/02/24 07:00:22;;;;;;;8.73;2.50;;;6.70;99.90;;;;;;4946323;28;20192;-89
2022/02/24 07:02:48;;;;;;;7.80;2.20;;;6.70;99.90;;;;;;4937221;29;20300;-89
2022/02/24 07:05:14;;;;;;;7.10;2.67;;;6.70;99.90;;;;;;4921058;29;20277;-88
2022/02/24 07:07:40;;;;;;;7.03;1.93;;;6.60;99.90;;;;;;4921054;29;20182;-89
2022/02/24 07:10:12;;;;;;;6.83;2.13;;;6.60;99.90;;;;;;4937825;29;20181;-88
2022/02/24 07:12:38;;;;;;;10.90;2.70;;;6.60;99.90;;;;;;4920309;29;20196;-87
2022/02/24 07:15:05;;;;;;;7.23;1.97;;;6.70;99.90;;;;;;4942306;28;20184;-88
2022/02/24 07:17:32;;;;;;;7.80;2.13;;;6.70;99.90;;;;;;4939723;29;20200;-87
2022/02/24 07:19:58;;;;;;;4.67;1.70;;;6.70;99.90;;;;;;4938770;29;20204;-87
2022/02/24 07:22:24;;;;;;;4.47;1.83;;;6.70;99.90;;;;;;4940386;29;20216;-88
2022/02/24 07:24:50;;;;;;;6.47;2.00;;;6.70;99.90;;;;;;4937181;29;20230;-86
2022/02/24 07:27:16;;;;;;;7.70;2.10;;;6.70;99.90;;;;;;4920777;29;20178;-85
2022/02/24 07:29:42;;;;;;;5.83;1.80;;;6.70;99.90;;;;;;4937752;29;20285;-87
2022/02/24 07:32:08;;;;;;;4.67;1.77;;;6.70;99.90;;;;;;4946997;29;20195;-87
2022/02/24 07:34:33;;;;;;;5.23;1.87;;;6.70;99.90;;;;;;4939836;29;20770;-87
2022/02/24 07:36:59;;;;;;;4.70;1.83;;;6.70;99.90;;;;;;4939208;29;20185;-89
2022/02/24 07:39:25;;;;;;;6.80;2.30;;;6.80;99.90;;;;;;4939358;29;20642;-89
2022/02/24 07:41:51;;;;;;;8.70;2.20;;;6.70;99.90;;;;;;4939470;29;20264;-87
2022/02/24 07:44:17;;;;;;;8.70;2.03;;;6.80;99.90;;;;;;4939478;29;20259;-87
2022/02/24 07:46:43;;;;;;;5.13;1.93;;;6.80;99.90;;;;;;4956629;29;20223;-91
2022/02/24 07:49:09;;;;;;;4.77;1.80;;;6.80;99.90;;;;;;4938921;28;20370;-88
2022/02/24 07:51:35;;;;;;;6.90;2.23;;;6.90;99.90;;;;;;4956716;29;20169;-87
2022/02/24 07:54:01;;;;;;;5.80;1.90;;;6.90;99.90;;;;;;4939254;29;20185;-87
2022/02/24 07:56:27;;;;;;;9.13;2.20;;;7.00;99.90;;;;;;4939168;29;20250;-88
2022/02/24 07:58:52;;;;;;;7.70;2.50;;;7.00;99.90;;;;;;4964882;28;20188;-88
2022/02/24 08:01:23;;;;;;;5.53;1.80;;;7.10;99.90;;;;;;4953248;29;20212;-87
2022/02/24 08:03:49;;;;;;;6.63;2.10;;;7.20;99.90;;;;;;4938935;29;20292;-88
2022/02/24 08:06:15;;;;;;;9.10;2.30;;;7.20;99.90;;;;;;4952668;28;20195;-85
2022/02/24 08:08:40;;;;;;;7.17;2.10;;;7.20;99.90;;;;;;4958238;28;20189;-86
2022/02/24 08:11:06;;;;;;;7.87;1.77;;;7.20;99.90;;;;;;4975898;28;20277;-87
2022/02/24 08:13:32;;;;;;;4.83;1.90;;;7.20;99.90;;;;;;4942489;29;20653;-88
2022/02/24 08:15:57;;;;;;;7.73;2.20;;;7.20;99.90;;;;;;4938967;29;20497;-89
2022/02/24 08:18:23;;;;;;;8.97;1.80;;;7.30;99.90;;;;;;4956538;29;20181;-91
2022/02/24 08:20:49;;;;;;;7.70;1.93;;;7.40;99.90;;;;;;4942276;28;20567;-90
2022/02/24 08:23:18;;;;;;;11.43;2.20;;;7.40;99.90;;;;;;4958241;28;20212;-84
2022/02/24 08:25:44;;;;;;;7.10;1.90;;;7.50;99.90;;;;;;4979243;28;20223;-86
2022/02/24 08:28:10;;;;;;;6.63;1.73;;;7.40;99.90;;;;;;4961829;28;20230;-88
2022/02/24 08:30:36;;;;;;;7.67;1.90;;;7.40;99.90;;;;;;4961928;28;20494;-86
2022/02/24 08:33:02;;;;;;;10.97;2.33;;;7.40;99.90;;;;;;4962004;28;20275;-89
2022/02/24 08:35:28;;;;;;;6.93;1.87;;;7.50;99.90;;;;;;4957950;29;20178;-87
2022/02/24 08:37:54;;;;;;;5.37;1.77;;;7.50;99.90;;;;;;4963249;28;20627;-87
2022/02/24 08:40:22;;;;;;;5.00;1.70;;;7.50;99.90;;;;;;4959848;29;20188;-89
2022/02/24 08:42:50;;;;;;;8.70;1.70;;;7.50;99.90;;;;;;4960025;29;20311;-88
2022/02/24 08:45:16;;;;;;;5.40;1.60;;;7.60;99.90;;;;;;4959590;29;20264;-88
2022/02/24 08:47:42;;;;;;;8.60;1.87;;;7.50;99.90;;;;;;4956401;28;20270;-86
2022/02/24 08:50:10;;;;;;;5.20;1.90;;;7.50;99.90;;;;;;4961778;28;20632;-87
2022/02/24 08:52:36;;;;;;;5.67;1.97;;;7.50;99.90;;;;;;4978865;28;20169;-90
2022/02/24 08:55:02;;;;;;;6.97;1.80;;;7.40;99.90;;;;;;4961280;28;20191;-86
2022/02/24 08:57:28;;;;;;;5.77;1.80;;;7.50;99.90;;;;;;4961435;28;20187;-87
2022/02/24 08:59:53;;;;;;;8.90;2.30;;;7.50;99.90;;;;;;4978590;28;20176;-87
2022/02/24 09:02:19;;;;;;;5.90;1.40;;;7.50;99.90;;;;;;4978548;28;20223;-87
2022/02/24 09:04:45;;;;;;;6.30;1.93;;;7.50;99.90;;;;;;4946212;29;20185;-86
2022/02/24 09:07:11;;;;;;;7.20;2.03;;;7.50;99.90;;;;;;4942062;29;20232;-87
2022/02/24 09:09:36;;;;;;;10.43;2.30;;;7.50;99.90;;;;;;4941983;29;20189;-89
2022/02/24 09:12:03;;;;;;;4.20;1.80;;;7.50;99.90;;;;;;4959179;29;20691;-86
2022/02/24 09:14:29;;;;;;;5.87;1.70;;;7.50;99.90;;;;;;4959070;29;20197;-88
2022/02/24 09:16:55;;;;;;;6.77;2.00;;;7.50;99.90;;;;;;4944570;28;20624;-89
2022/02/24 09:19:21;;;;;;;6.70;2.03;;;7.60;99.90;;;;;;4946268;29;20219;-88
2022/02/24 09:21:47;;;;;;;7.53;2.07;;;7.60;99.90;;;;;;4958219;28;20253;-85
2022/02/24 09:24:13;;;;;;;8.90;2.00;;;7.60;99.90;;;;;;4958203;28;20323;-85
2022/02/24 09:26:38;;;;;;;6.60;1.70;;;7.70;99.90;;;;;;4941608;29;20189;-88
2022/02/24 09:29:05;;;;;;;6.37;1.90;;;7.70;99.90;;;;;;4941029;29;20528;-87
2022/02/24 09:31:31;;;;;;;6.13;2.00;;;7.80;99.90;;;;;;4940974;29;20193;-85
2022/02/24 09:33:57;;;;;;;8.33;2.00;;;7.90;99.90;;;;;;4958749;29;20196;-85
2022/02/24 09:36:22;;;;;;;7.73;2.03;;;8.00;99.90;;;;;;4957426;28;20189;-86
2022/02/24 09:38:48;;;;;;;9.50;1.97;;;8.10;99.90;;;;;;4958484;29;20612;-85
2022/02/24 09:41:14;;;;;;;5.97;2.00;;;8.10;99.90;;;;;;4941231;29;20193;-88
2022/02/24 09:43:40;;;;;;;6.40;1.67;;;8.10;99.90;;;;;;4960982;28;20212;-90
2022/02/24 09:46:09;;;;;;;8.73;2.10;;;8.20;99.90;;;;;;4958682;29;20178;-89
2022/02/24 09:48:38;;;;;;;5.90;1.90;;;8.10;99.90;;;;;;4941646;28;20644;-87
2022/02/24 09:51:08;;;;;;;9.27;2.20;;;8.20;99.90;;;;;;4941354;29;20271;-86
2022/02/24 09:53:34;;;;;;;5.47;1.80;;;8.20;99.90;;;;;;4947787;28;20616;-88
2022/02/24 09:56:02;;;;;;;8.10;2.20;;;8.30;99.90;;;;;;4960094;28;20184;-88
2022/02/24 09:58:28;;;;;;;9.67;1.80;;;8.40;99.90;;;;;;4960191;28;20200;-88
2022/02/24 10:00:59;;;;;;;7.83;1.93;;;8.40;99.90;;;;;;4962775;28;20269;-84
2022/02/24 10:03:30;;;;;;;6.93;2.20;;;8.50;99.90;;;;;;4977120;28;20208;-87
2022/02/24 10:05:57;;;;;;;8.90;2.40;;;8.50;99.90;;;;;;4960150;28;20248;-86
2022/02/24 10:08:28;;;;;;;7.03;2.07;;;8.60;99.90;;;;;;4960022;28;20180;-85
2022/02/24 10:10:54;;;;;;;10.80;2.20;;;8.60;99.90;;;;;;4977185;28;20250;-85
2022/02/24 10:13:20;;;;;;;9.30;2.03;;;8.70;99.90;;;;;;4965453;28;20628;-86
2022/02/24 10:16:13;;;;;;;5.03;2.03;;;8.70;99.90;;;;;;4940972;29;20185;-88
2022/02/24 10:18:39;;;;;;;9.00;2.20;;;8.80;99.90;;;;;;4938284;29;20668;-87
2022/02/24 10:21:05;;;;;;;9.13;2.10;;;8.80;99.90;;;;;;4940518;29;20216;-86
2022/02/24 10:23:36;;;;;;;6.97;2.03;;;8.90;99.90;;;;;;4957809;29;20273;-85
2022/02/24 10:26:12;;;;;;;7.67;2.17;;;9.00;99.90;;;;;;4957772;28;20221;-90
2022/02/24 10:28:52;;;;;;;7.97;2.00;;;9.10;99.90;;;;;;4939982;28;20223;-86
2022/02/24 10:31:18;;;;;;;9.53;1.97;;;9.20;99.90;;;;;;4958063;28;20197;-88
2022/02/24 10:33:47;;;;;;;8.73;2.13;;;9.20;99.90;;;;;;4940835;29;20218;-89
2022/02/24 10:36:14;;;;;;;8.30;2.20;;;9.10;99.90;;;;;;4940555;29;20192;-89
2022/02/24 10:39:00;;;;;;;5.40;1.90;;;9.30;99.90;;;;;;4956943;28;20185;-87
2022/02/24 10:41:32;;;;;;;5.37;1.80;;;9.30;99.90;;;;;;4935938;28;20194;-86
2022/02/24 10:44:18;;;;;;;7.53;2.07;;;9.40;99.90;;;;;;4940154;29;20213;-85
2022/02/24 10:46:50;;;;;;;6.97;2.00;;;9.50;99.90;;;;;;4939877;29;20276;-89
2022/02/24 10:49:30;;;;;;;8.90;2.50;;;9.60;99.90;;;;;;4957465;29;20181;-86
2022/02/24 10:52:28;;;;;;;4.60;1.70;;;9.60;99.90;;;;;;4938994;28;20180;-86
2022/02/24 10:54:59;;;;;;;5.50;1.50;;;9.70;99.90;;;;;;4906364;29;20198;-90
2022/02/24 10:57:27;;;;;;;5.57;1.63;;;9.80;99.90;;;;;;4937561;29;20229;-86
2022/02/24 10:59:56;;;;;;;4.03;1.50;;;9.90;99.90;;;;;;4922339;28;20518;-86
2022/02/24 11:02:23;;;;;;;5.47;1.43;;;9.90;99.90;;;;;;4957004;29;20197;-87
2022/02/24 11:04:51;;;;;;;5.60;1.80;;;10.00;99.90;;;;;;4956729;28;20189;-89
2022/02/24 11:07:16;;;;;;;5.87;1.90;;;10.00;99.90;;;;;;4939440;28;20181;-86
2022/02/24 11:09:44;;;;;;;7.00;1.97;;;9.90;99.90;;;;;;4939605;29;20189;-87
2022/02/24 11:12:12;;;;;;;4.70;1.70;;;10.00;99.90;;;;;;4957090;29;20204;-87
2022/02/24 11:14:41;;;;;;;5.87;1.60;;;10.00;99.90;;;;;;4939862;29;20268;-87
2022/02/24 11:17:11;;;;;;;5.93;1.67;;;10.20;99.90;;;;;;4939805;29;20181;-89
2022/02/24 11:19:39;;;;;;;4.67;1.70;;;10.20;99.90;;;;;;4939857;29;20256;-87
2022/02/24 11:22:06;;;;;;;4.07;1.37;;;10.10;99.90;;;;;;4939585;29;20200;-88
2022/02/24 11:24:32;;;;;;;8.33;2.00;;;10.10;99.90;;;;;;4939541;29;20672;-88
2022/02/24 11:27:10;;;;;;;6.57;1.63;;;10.20;99.90;;;;;;4941623;28;20536;-88
2022/02/24 11:29:56;;;;;;;4.93;1.97;;;10.10;99.90;;;;;;4962464;28;20180;-86
2022/02/24 11:32:22;;;;;;;3.53;1.47;;;10.10;99.90;;;;;;4963695;28;20271;-88
2022/02/24 11:35:15;;;;;;;5.47;1.77;;;10.20;99.90;;;;;;4944935;29;20185;-89
2022/02/24 11:37:54;;;;;;;4.53;1.77;;;10.20;99.90;;;;;;4939486;29;20181;-89
2022/02/24 11:40:24;;;;;;;7.23;1.83;;;10.20;99.90;;;;;;4939459;29;20204;-88
2022/02/24 11:43:19;;;;;;;6.30;1.70;;;10.30;99.90;;;;;;4920340;29;20229;-86
2022/02/24 11:45:50;;;;;;;5.43;1.50;;;10.40;99.90;;;;;;4937363;29;20217;-86
2022/02/24 11:48:20;;;;;;;6.63;1.60;;;10.70;99.90;;;;;;4937555;29;20201;-86
2022/02/24 11:51:09;;;;;;;3.03;1.37;;;10.70;99.90;;;;;;4920027;29;20184;-85
2022/02/24 11:53:41;;;;;;;4.35;1.48;;;10.70;99.90;;;;;;4937381;29;20186;-88
2022/02/24 11:56:18;;;;;;;4.25;1.75;;;10.70;99.90;;;;;;4933094;29;20272;-87
2022/02/24 11:58:54;;;;;;;5.50;1.93;;;10.70;99.90;;;;;;4955678;29;20618;-86
2022/02/24 12:01:30;;;;;;;4.70;1.45;;;10.70;99.90;;;;;;4956286;29;20304;-87
2022/02/24 12:04:00;;;;;;;4.70;1.43;;;10.90;99.90;;;;;;4939019;29;20806;-87
2022/02/24 12:06:40;;;;;;;4.30;1.60;;;11.10;99.90;;;;;;4952280;29;20174;-87
2022/02/24 12:09:15;;;;;;;3.85;1.48;;;11.10;99.90;;;;;;4938671;29;20250;-88
2022/02/24 12:11:43;;;;;;;8.77;1.40;;;11.40;99.90;;;;;;4938048;29;20173;-87
2022/02/24 12:14:23;;;;;;;5.70;1.57;;;11.20;99.90;;;;;;4957320;28;20221;-87
2022/02/24 12:17:03;;;;;;;7.00;1.67;;;10.90;99.90;;;;;;4938605;29;20188;-86
2022/02/24 12:19:48;;;;;;;3.65;1.25;;;10.70;99.90;;;;;;4938920;29;20632;-86
2022/02/24 12:22:38;;;;;;;3.93;1.27;;;10.50;99.90;;;;;;4938872;29;20176;-87
2022/02/24 12:25:26;;;;;;;5.20;1.37;;;10.40;99.90;;;;;;4955841;28;20233;-92
2022/02/24 12:28:08;;;;;;;2.53;1.17;;;10.20;99.90;;;;;;4956130;29;20197;-90
2022/02/24 12:30:40;;;;;;;4.83;1.40;;;10.10;99.90;;;;;;4955858;28;20173;-89
2022/02/24 12:33:16;;;;;;;5.63;1.40;;;10.10;99.90;;;;;;4943284;28;20185;-88
2022/02/24 12:35:49;;;;;;;7.73;1.60;;;10.10;99.90;;;;;;4938583;29;20257;-86
2022/02/24 12:38:20;;;;;;;5.73;1.40;;;10.10;99.90;;;;;;4960668;28;20172;-91
2022/02/24 12:40:54;;;;;;;7.13;1.40;;;10.10;99.90;;;;;;4975691;28;20632;-90
2022/02/24 12:43:26;;;;;;;4.57;1.63;;;10.00;99.90;;;;;;4958725;28;20209;-91
2022/02/24 12:45:53;;;;;;;4.87;1.50;;;10.00;99.90;;;;;;4958440;28;20490;-90
2022/02/24 12:48:20;;;;;;;4.90;1.40;;;10.00;99.90;;;;;;4973406;28;20536;-90
2022/02/24 12:50:48;;;;;;;5.70;1.60;;;10.00;99.90;;;;;;4921344;29;20186;-91
2022/02/24 12:53:22;;;;;;;3.30;1.47;;;10.10;99.90;;;;;;4920975;29;20186;-92
2022/02/24 12:55:51;;;;;;;5.03;1.80;;;10.00;99.90;;;;;;4922381;29;20645;-92
2022/02/24 12:58:18;;;;;;;3.90;1.37;;;10.00;99.90;;;;;;4945860;29;20173;-92